Flight Track Log - Related Links

Times and Time Zones

All times are in EDT time to prevent confusion due to time zone crossing. See the AWI3688 flight status page for this flight to view local times or setup timezone preferences in your user account.


Time Position Orientation Groundspeed Altitude Reporting Facility
EDT Latitude Longitude Course Direction KTS MPH feet Rate Location/Type
Sat 12:16:46 PM 39.8667 -75.2667 37° Northeast 157 181 800  Level Philadelphia TRACON
Sat 12:18:54 PM 39.7864 -75.2581 175° South 160 184 5,800 2,374 Climbing New York Center
Sat 12:19:00 PM 39.8139 -74.8529 105° East  Level FlightAware Approximate
Sat 12:19:53 PM 39.7861 -75.1553 90° East 213 245 8,200  Level New York Center
Sat 12:20:00 PM 39.7882 -74.7245 105° East  Level FlightAware Approximate
Sat 12:20:53 PM 39.7858 -75.0500 90° East 293 337 10,500  Level New York Center
Sat 12:21:00 PM 39.8488 -74.6346 37° Northeast  Level FlightAware Approximate
Sat 12:21:54 PM 39.7889 -74.9042 88° East 356 410 11,600  Level New York Center
Sat 12:22:53 PM 39.7911 -74.7775 89° East 373 429 12,700 1,613 Climbing New York Center
Sat 12:23:53 PM 39.8536 -74.6592 55° Northeast 380 437 14,800 2,050 Climbing New York Center
Sat 12:24:53 PM 39.9442 -74.5694 37° Northeast 373 429 16,800 1,770 Climbing New York Center
Sat 12:25:55 PM 40.0408 -74.4744 37° Northeast 411 473 18,400 1,328 Climbing New York Center
Sat 12:26:55 PM 40.1356 -74.3819 37° Northeast 427 491 19,500 900 Climbing New York Center
Sat 12:27:55 PM 40.2342 -74.2836 37° Northeast 427 491 20,200 1,098 Climbing New York Center
Sat 12:29:39 PM 40.4161 -74.1436 30° Northeast 427 491 22,500 1,098 Climbing Boston Center
Sat 12:30:39 PM 40.5214 -74.0644 30° Northeast 422 486 23,200 700 Climbing Boston Center
Sat 12:31:39 PM 40.6456 -73.9800 27° Northeast 433 498 23,900 400 Climbing Boston Center
Sat 12:32:39 PM 40.7550 -73.8950 30° Northeast 445 512 24,000  Climbing Boston Center
Sat 12:33:39 PM 40.8564 -73.7875 39° Northeast 450 518 23,900  Descending Boston Center
Sat 12:34:39 PM 40.9389 -73.6764 45° Northeast 457 526 24,000 -450 Climbing Boston Center
Sat 12:35:39 PM 41.0464 -73.5547 40° Northeast 457 526 23,000 -900 Descending Boston Center
Sat 12:36:39 PM 41.1494 -73.4656 33° Northeast 443 510 22,200 -1,200 Descending Boston Center
Sat 12:37:39 PM 41.2683 -73.4703 358° North 403 464 20,600 -1,400 Descending Boston Center
Sat 12:38:39 PM 41.3578 -73.4772 357° North 403 464 19,400 -800 Descending Boston Center
Sat 12:39:39 PM 41.4786 -73.4847 357° North 398 458 19,000 -200 Descending Boston Center
Sat 12:40:39 PM 41.6014 -73.4922 357° North 405 466 19,000  Level Boston Center
Sat 12:41:39 PM 41.7014 -73.4994 357° North 405 466 19,000 -1,100 Level Boston Center
Sat 12:42:39 PM 41.8222 -73.5069 357° North 399 459 16,800 -2,200 Descending Boston Center
Sat 12:43:39 PM 41.9222 -73.5114 358° North 378 435 14,600 -2,100 Descending Boston Center
Sat 12:44:39 PM 42.0158 -73.5186 357° North 348 400 12,600 -2,063 Descending Boston Center
Sat 12:45:15 PM 42.0700 -73.5225 357° North 326 375 11,300 -1,500 Descending Boston Center
Sat 12:45:39 PM 42.0867 -73.5256 352° North 335 386 11,100 -295 Descending Boston Center
Sat 12:46:16 PM 42.1597 -73.5183 North 320 368 11,000 -100 Descending Boston Center
Sat 12:46:39 PM 42.1953 -73.5133 North 324 373 11,000 -300 Level Boston Center
Sat 12:47:16 PM 42.2453 -73.5114 North 311 358 10,700 -1,200 Descending Boston Center
Sat 12:47:39 PM 42.2786 -73.5206 348° North 312 359 9,800 -2,361 Descending Boston Center
Sat 12:48:17 PM 42.3325 -73.5353 349° North 291 335 8,300 -1,900 Descending Boston Center
Sat 12:48:39 PM 42.3514 -73.5386 353° North 300 345 7,900 -2,066 Descending Boston Center
Sat 12:49:18 PM 42.4136 -73.5564 348° North 293 337 6,200 -2,300 Descending Boston Center
Sat 12:49:39 PM 42.4367 -73.5597 354° North 294 338 5,600 -1,200 Descending Boston Center
Sat 12:50:18 PM 42.4906 -73.5775 346° North 288 331 5,000 -600 Descending Boston Center
Sat 12:50:39 PM 42.5072 -73.5836 345° North 289 333 5,000 -197 Level Boston Center
Sat 12:51:19 PM 42.5656 -73.5875 357° North 277 319 4,800 -800 Descending Boston Center
Sat 12:51:39 PM 42.5906 -73.5739 22° Northeast 270 311 4,200 -787 Descending Boston Center
Sat 12:52:20 PM 42.6389 -73.5492 21° North 282 325 4,000 -200 Descending Boston Center
Sat 12:52:39 PM 42.6556 -73.5411 20° North 270 311 4,000  Level Boston Center
Sat 12:53:20 PM 42.7142 -73.5167 17° North 287 330 4,000  Level Boston Center
Sat 12:53:39 PM 42.7392 -73.5086 13° North 282 325 4,000  Level Boston Center
Sat 12:54:21 PM 42.7931 -73.5408 336° Northwest 276 318 4,000  Level Boston Center
Sat 12:54:39 PM 42.8097 -73.5494 339° North 271 312 4,000 -197 Level Boston Center
Sat 12:55:22 PM 42.8533 -73.5731 338° Northwest 212 244 3,800 -300 Descending Boston Center
Sat 12:55:39 PM 42.8658 -73.5761 350° North 235 270 3,700 -800 Descending Boston Center
Sat 12:56:22 PM 42.9008 -73.5964 337° Northwest 174 200 3,000 -700 Descending Boston Center
Sat 12:56:39 PM 42.9156 -73.6025 343° North 190 219 3,000  Level Boston Center
Sat 12:57:23 PM 42.9464 -73.6258 331° Northwest 183 211 3,000  Level Boston Center
Sat 12:57:39 PM 42.9506 -73.6400 292° West 174 200 3,000 -700 Level Boston Center
Sat 12:58:23 PM 42.9564 -73.6883 279° West 162 186 2,300 -1,000 Descending Boston Center
Sat 12:58:39 PM 42.9519 -73.7025 247° West 154 177 2,000 -295 Descending Boston Center
Sat 12:59:24 PM 42.9494 -73.7506 266° West 167 192 2,000  Level Boston Center
Sat 01:00:25 PM 42.9156 -73.7867 218° Southwest 153 176 2,000  Level Boston Center

Login

Don't have an account? Register now (free) for customized features, flight alerts, and more!